createdAt,value
2022-12-18T00:00:10.657Z,25.03
2022-12-18T00:02:39.403Z,25.13
2022-12-18T00:05:10.859Z,23.80
2022-12-18T00:07:39.854Z,25.87
2022-12-18T00:10:09.611Z,26.17
2022-12-18T00:12:38.215Z,25.17
2022-12-18T00:15:07.755Z,25.70
2022-12-18T00:17:36.394Z,24.20
2022-12-18T00:20:05.600Z,23.50
2022-12-18T00:22:35.548Z,25.00
2022-12-18T00:25:04.799Z,25.63
2022-12-18T00:27:33.365Z,24.87
2022-12-18T00:30:02.061Z,24.70
2022-12-18T00:32:30.741Z,23.20
2022-12-18T00:34:59.345Z,24.50
2022-12-18T00:37:27.923Z,24.70
2022-12-18T00:39:57.964Z,23.20
2022-12-18T00:42:44.291Z,24.70
2022-12-18T00:45:13.346Z,24.00
2022-12-18T00:47:42.458Z,24.27
2022-12-18T00:50:11.731Z,24.13
2022-12-18T00:52:41.591Z,24.47
2022-12-18T00:55:11.826Z,24.70
2022-12-18T00:57:40.595Z,23.97
2022-12-18T01:00:11.086Z,23.97
2022-12-18T01:02:39.999Z,24.73
2022-12-18T01:05:09.488Z,23.67
2022-12-18T01:07:38.125Z,22.77
2022-12-18T01:10:07.880Z,22.27
2022-12-18T01:12:37.877Z,23.53
2022-12-18T01:15:08.105Z,24.57
2022-12-18T01:17:37.536Z,23.20
2022-12-18T01:20:07.527Z,22.47
2022-12-18T01:22:36.113Z,24.37
2022-12-18T01:25:06.301Z,21.47
2022-12-18T01:27:36.750Z,22.77
2022-12-18T01:30:06.741Z,23.57
2022-12-18T01:32:35.323Z,22.60
2022-12-18T01:35:04.044Z,24.00
2022-12-18T01:37:32.741Z,21.37
2022-12-18T01:40:01.368Z,22.03
2022-12-18T01:42:30.030Z,22.00
2022-12-18T01:45:06.491Z,20.80
2022-12-18T01:47:38.746Z,20.83
2022-12-18T01:50:11.066Z,20.17
2022-12-18T01:52:40.608Z,20.60
2022-12-18T01:55:10.698Z,20.87
2022-12-18T01:57:40.040Z,20.80
2022-12-18T02:00:12.536Z,20.70
2022-12-18T02:02:41.694Z,23.10
2022-12-18T02:05:11.318Z,19.43
2022-12-18T02:07:45.911Z,19.67
2022-12-18T02:10:18.495Z,20.90
2022-12-18T02:12:50.932Z,22.20
2022-12-18T02:15:28.553Z,20.37
2022-12-18T02:18:00.091Z,20.97
2022-12-18T02:20:34.311Z,21.90
2022-12-18T02:23:09.427Z,20.43
2022-12-18T02:25:53.979Z,18.53
2022-12-18T02:28:24.970Z,18.23
2022-12-18T02:30:55.786Z,18.67
2022-12-18T02:33:24.920Z,18.10
2022-12-18T02:35:54.560Z,19.20
2022-12-18T02:38:23.235Z,20.40
2022-12-18T02:40:53.831Z,18.90
2022-12-18T02:43:22.800Z,19.27
2022-12-18T02:45:54.514Z,18.20
2022-12-18T02:48:30.279Z,19.53
2022-12-18T02:51:05.138Z,18.53
2022-12-18T02:53:39.318Z,18.67
2022-12-18T02:56:13.070Z,16.90
2022-12-18T02:58:47.471Z,19.30
2022-12-18T03:01:19.589Z,18.47
2022-12-18T03:03:51.067Z,16.63
2022-12-18T03:06:24.931Z,21.00
2022-12-18T03:08:56.508Z,19.17
2022-12-18T03:11:43.683Z,19.07
2022-12-18T03:14:13.334Z,18.30
2022-12-18T03:16:42.388Z,19.00
2022-12-18T03:19:13.920Z,19.67
2022-12-18T03:21:44.759Z,21.23
2022-12-18T03:24:13.736Z,19.50
2022-12-18T03:26:47.068Z,19.10
2022-12-18T03:29:19.685Z,17.53
2022-12-18T03:31:51.575Z,19.50
2022-12-18T03:34:25.142Z,20.13
2022-12-18T03:36:54.065Z,20.07
2022-12-18T03:39:22.719Z,18.60
2022-12-18T03:41:54.906Z,17.70
2022-12-18T03:44:30.220Z,18.50
2022-12-18T03:47:04.154Z,17.90
2022-12-18T03:49:37.355Z,17.07
2022-12-18T03:52:08.428Z,16.60
2022-12-18T03:54:37.814Z,17.57
2022-12-18T03:57:11.949Z,17.40
2022-12-18T03:59:41.391Z,16.60
2022-12-18T04:02:10.315Z,16.60
2022-12-18T04:04:40.607Z,15.97
2022-12-18T04:07:09.607Z,16.70
2022-12-18T04:09:38.916Z,16.90
2022-12-18T04:12:09.098Z,18.93
2022-12-18T04:14:37.725Z,16.77
2022-12-18T04:17:06.334Z,17.27
2022-12-18T04:19:34.928Z,17.47
2022-12-18T04:22:03.556Z,17.03
2022-12-18T04:24:32.210Z,18.07
2022-12-18T04:27:00.763Z,18.40
2022-12-18T04:29:30.747Z,16.40
2022-12-18T04:31:59.363Z,16.87
2022-12-18T04:34:28.444Z,18.03
2022-12-18T04:36:57.014Z,17.00
2022-12-18T04:39:26.202Z,15.87
2022-12-18T04:41:55.241Z,15.27
2022-12-18T04:44:23.840Z,14.90
2022-12-18T04:46:53.870Z,15.10
2022-12-18T04:49:23.097Z,15.03
2022-12-18T04:51:51.724Z,14.93
2022-12-18T04:54:21.784Z,13.73
2022-12-18T04:56:50.334Z,14.40
2022-12-18T04:59:18.916Z,15.10
2022-12-18T05:01:47.825Z,13.63
2022-12-18T05:04:17.848Z,14.00
2022-12-18T05:06:46.674Z,12.80
2022-12-18T05:09:15.868Z,14.10
2022-12-18T05:11:45.093Z,13.63
2022-12-18T05:14:14.943Z,13.00
2022-12-18T05:16:43.587Z,13.30
2022-12-18T05:19:12.736Z,12.20
2022-12-18T05:21:43.182Z,13.20
2022-12-18T05:24:12.538Z,13.70
2022-12-18T05:26:41.295Z,12.50
2022-12-18T05:29:13.138Z,14.13
2022-12-18T05:31:42.686Z,13.70
2022-12-18T05:34:12.111Z,13.53
2022-12-18T05:36:43.073Z,11.67
2022-12-18T05:39:13.126Z,14.93
2022-12-18T05:41:41.775Z,14.53
2022-12-18T05:44:11.510Z,13.00
2022-12-18T05:46:40.146Z,13.50
2022-12-18T05:49:10.163Z,12.20
2022-12-18T05:51:39.063Z,13.53
2022-12-18T05:54:09.274Z,13.03
2022-12-18T05:56:37.881Z,12.37
2022-12-18T05:59:06.471Z,12.80
2022-12-18T06:01:35.230Z,13.37
2022-12-18T06:04:04.034Z,13.80
2022-12-18T06:06:34.109Z,13.57
2022-12-18T06:09:09.009Z,12.30
2022-12-18T06:11:39.196Z,12.63
2022-12-18T06:14:08.205Z,11.40
2022-12-18T06:16:36.826Z,12.00
2022-12-18T06:19:07.455Z,13.07
2022-12-18T06:21:36.152Z,13.40
2022-12-18T06:24:05.220Z,13.00
2022-12-18T06:26:33.839Z,12.07
2022-12-18T06:29:03.841Z,12.13
2022-12-18T06:31:32.623Z,13.40
2022-12-18T06:34:01.299Z,13.20
2022-12-18T06:36:30.241Z,14.60
2022-12-18T06:38:59.091Z,13.97
2022-12-18T06:41:27.748Z,14.13
2022-12-18T06:43:59.692Z,13.47
2022-12-18T06:46:30.127Z,13.00
2022-12-18T06:48:58.774Z,13.20
2022-12-18T06:51:27.458Z,13.33
2022-12-18T06:53:56.022Z,12.90
2022-12-18T06:56:24.638Z,13.00
2022-12-18T06:58:53.314Z,12.60
2022-12-18T07:01:21.965Z,13.83
2022-12-18T07:03:55.743Z,13.10
2022-12-18T07:06:26.602Z,14.03
2022-12-18T07:08:56.005Z,14.17
2022-12-18T07:11:25.257Z,14.70
2022-12-18T07:13:54.444Z,14.20
2022-12-18T07:16:25.666Z,13.77
2022-12-18T07:18:56.642Z,12.93
2022-12-18T07:21:26.089Z,20.10
2022-12-18T07:23:54.817Z,17.93
2022-12-18T07:26:24.214Z,16.40
2022-12-18T07:28:56.936Z,14.60
2022-12-18T07:31:26.550Z,15.73
2022-12-18T07:33:56.831Z,14.10
2022-12-18T07:36:25.653Z,12.77
2022-12-18T07:38:54.468Z,14.40
2022-12-18T07:41:23.143Z,14.53
2022-12-18T07:43:51.776Z,15.40
2022-12-18T07:46:20.918Z,13.33
2022-12-18T07:48:50.443Z,12.00
2022-12-18T07:51:20.704Z,13.67
2022-12-18T07:53:52.307Z,14.37
2022-12-18T07:56:27.723Z,13.97
2022-12-18T07:58:58.127Z,14.30
2022-12-18T08:01:27.011Z,13.50
2022-12-18T08:03:55.890Z,13.93
2022-12-18T08:06:25.826Z,13.23
2022-12-18T08:08:54.980Z,14.40
2022-12-18T08:11:24.585Z,14.70
2022-12-18T08:13:53.614Z,15.77
2022-12-18T08:16:22.958Z,15.87
2022-12-18T08:18:53.289Z,14.50
2022-12-18T08:21:25.065Z,16.20
2022-12-18T08:23:56.568Z,15.83
2022-12-18T08:26:26.508Z,15.70
2022-12-18T08:28:55.757Z,14.80
2022-12-18T08:31:24.957Z,15.00
2022-12-18T08:33:54.937Z,14.73
2022-12-18T08:36:24.807Z,14.60
2022-12-18T08:38:55.759Z,13.30
2022-12-18T08:41:24.363Z,16.50
2022-12-18T08:44:10.368Z,16.30
2022-12-18T08:46:41.178Z,14.93
2022-12-18T08:49:10.836Z,14.90
2022-12-18T08:51:39.569Z,15.90
2022-12-18T08:54:09.683Z,15.60
2022-12-18T08:56:38.314Z,15.13
2022-12-18T08:59:07.498Z,15.73
2022-12-18T09:01:36.317Z,15.10
2022-12-18T09:04:05.369Z,15.50
2022-12-18T09:06:36.295Z,18.10
2022-12-18T09:09:06.487Z,15.60
2022-12-18T09:11:36.463Z,15.70
2022-12-18T09:14:05.412Z,14.67
2022-12-18T09:16:35.868Z,16.00
2022-12-18T09:19:05.677Z,15.90
2022-12-18T09:21:41.207Z,15.67
2022-12-18T09:24:14.356Z,15.47
2022-12-18T09:26:47.264Z,15.73
2022-12-18T09:29:16.403Z,15.87
2022-12-18T09:31:48.348Z,17.20
2022-12-18T09:34:17.520Z,15.20
2022-12-18T09:36:46.158Z,17.43
2022-12-18T09:39:16.125Z,18.10
2022-12-18T09:41:51.830Z,16.80
2022-12-18T09:44:27.426Z,17.60
2022-12-18T09:47:04.430Z,16.67
2022-12-18T09:49:36.864Z,16.53
2022-12-18T09:52:11.133Z,17.57
2022-12-18T09:54:41.666Z,15.10
2022-12-18T09:57:16.059Z,17.87
2022-12-18T09:59:46.965Z,15.60
2022-12-18T10:02:22.237Z,17.23
2022-12-18T10:05:03.848Z,15.73
2022-12-18T10:07:43.941Z,15.67
2022-12-18T10:10:23.893Z,16.43
2022-12-18T10:13:04.551Z,16.30
2022-12-18T10:15:38.635Z,17.53
2022-12-18T10:18:21.679Z,17.90
2022-12-18T10:20:52.177Z,15.90
2022-12-18T10:23:24.419Z,16.70
2022-12-18T10:26:05.882Z,18.10
2022-12-18T10:28:38.715Z,17.27
2022-12-18T10:31:07.918Z,16.07
2022-12-18T10:33:36.765Z,18.53
2022-12-18T10:36:07.254Z,18.00
2022-12-18T10:38:36.078Z,19.30
2022-12-18T10:41:06.614Z,17.77
2022-12-18T10:43:38.389Z,18.33
2022-12-18T10:46:25.242Z,17.97
2022-12-18T10:49:22.223Z,16.83
2022-12-18T10:52:08.262Z,17.10
2022-12-18T10:54:37.403Z,19.43
2022-12-18T10:57:33.935Z,18.43
2022-12-18T11:00:23.728Z,17.10
2022-12-18T11:02:52.861Z,18.83
2022-12-18T11:05:29.867Z,18.03
2022-12-18T11:07:59.789Z,25.57
2022-12-18T11:10:32.280Z,19.67
2022-12-18T11:13:12.678Z,18.40
2022-12-18T11:15:43.376Z,17.53
2022-12-18T11:18:19.107Z,18.43
2022-12-18T11:20:58.198Z,18.70
2022-12-18T11:23:27.791Z,17.20
2022-12-18T11:25:58.913Z,18.57
2022-12-18T11:28:31.142Z,18.80
2022-12-18T11:31:19.193Z,19.97
2022-12-18T11:36:52.566Z,20.20
2022-12-18T11:39:24.892Z,20.33
2022-12-18T11:42:12.352Z,20.50
2022-12-18T11:44:45.356Z,19.80
2022-12-18T11:47:24.171Z,24.67
2022-12-18T11:49:53.394Z,20.30
2022-12-18T11:52:23.727Z,20.17
2022-12-18T11:54:53.740Z,20.80
2022-12-18T11:57:35.004Z,20.97
2022-12-18T12:00:09.578Z,20.70
2022-12-18T12:02:59.911Z,20.47
2022-12-18T12:05:38.747Z,21.50
2022-12-18T12:08:15.300Z,20.53
2022-12-18T12:10:51.536Z,22.23
2022-12-18T12:13:32.195Z,20.33
2022-12-18T12:16:08.634Z,21.97
2022-12-18T12:18:49.178Z,20.77
2022-12-18T12:21:22.572Z,20.00
2022-12-18T12:23:56.120Z,19.43
2022-12-18T12:26:29.611Z,19.23
2022-12-18T12:29:04.720Z,21.20
2022-12-18T12:31:49.554Z,22.30
2022-12-18T12:34:22.086Z,20.77
2022-12-18T12:37:02.474Z,21.10
2022-12-18T12:39:33.485Z,21.27
2022-12-18T12:42:20.670Z,20.63
2022-12-18T12:44:56.277Z,22.03
2022-12-18T12:47:28.115Z,22.00
2022-12-18T12:49:58.765Z,20.53
2022-12-18T12:52:33.179Z,22.30
2022-12-18T12:55:02.542Z,20.87
2022-12-18T12:57:37.099Z,20.93
2022-12-18T13:00:11.592Z,19.73
2022-12-18T13:02:44.800Z,20.00
2022-12-18T13:05:20.007Z,20.93
2022-12-18T13:07:53.409Z,22.30
2022-12-18T13:10:28.686Z,19.40
2022-12-18T13:12:57.920Z,20.40
2022-12-18T13:15:31.512Z,20.67
2022-12-18T13:18:07.343Z,22.90
2022-12-18T13:20:38.808Z,24.30
2022-12-18T13:23:28.945Z,28.70
2022-12-18T13:25:58.695Z,29.57
2022-12-18T13:29:00.181Z,28.87
2022-12-18T13:32:10.782Z,27.33
2022-12-18T13:34:39.668Z,24.70
2022-12-18T13:37:47.245Z,25.57
2022-12-18T13:40:56.107Z,26.53
2022-12-18T13:43:28.591Z,23.87
2022-12-18T13:46:06.626Z,24.80
2022-12-18T13:48:36.831Z,26.00
2022-12-18T13:51:06.787Z,26.60
2022-12-18T13:53:40.834Z,25.40
2022-12-18T13:56:10.063Z,26.50
2022-12-18T13:58:39.117Z,23.13
2022-12-18T14:01:23.807Z,21.50
2022-12-18T14:03:52.703Z,23.30
2022-12-18T14:06:22.541Z,22.33
2022-12-18T14:08:53.439Z,19.33
2022-12-18T14:11:25.367Z,21.43
2022-12-18T14:13:55.459Z,20.67
2022-12-18T14:16:24.403Z,20.70
2022-12-18T14:18:57.573Z,22.10
2022-12-18T14:21:33.439Z,20.67
2022-12-18T14:24:08.718Z,22.03
2022-12-18T14:26:37.345Z,20.50
2022-12-18T14:29:21.580Z,20.57
2022-12-18T14:32:17.316Z,21.70
2022-12-18T14:34:48.115Z,21.23
2022-12-18T14:37:18.293Z,19.73
2022-12-18T14:39:59.570Z,20.50
2022-12-18T14:42:29.115Z,19.80
2022-12-18T14:45:41.533Z,20.07
2022-12-18T14:48:16.500Z,19.83
2022-12-18T14:51:00.762Z,19.13
2022-12-18T14:53:39.209Z,18.70
2022-12-18T14:56:19.229Z,17.97
2022-12-18T14:58:49.746Z,19.67
2022-12-18T15:01:23.833Z,18.80
2022-12-18T15:03:53.321Z,18.40
2022-12-18T15:06:29.127Z,18.83
2022-12-18T15:08:58.104Z,19.17
2022-12-18T15:11:35.697Z,18.37
2022-12-18T15:14:40.067Z,19.40
2022-12-18T15:17:17.784Z,18.77
2022-12-18T15:19:47.502Z,18.77
2022-12-18T15:22:25.274Z,20.30
2022-12-18T15:24:54.084Z,18.50
2022-12-18T15:27:27.516Z,21.17
2022-12-18T15:30:18.078Z,18.30
2022-12-18T15:32:46.920Z,21.63
2022-12-18T15:35:17.815Z,21.17
2022-12-18T15:37:46.710Z,20.10
2022-12-18T15:40:16.100Z,20.17
2022-12-18T15:43:05.835Z,20.67
2022-12-18T15:45:35.046Z,20.97
2022-12-18T15:48:21.690Z,19.90
2022-12-18T15:50:59.419Z,20.50
2022-12-18T15:53:31.754Z,19.30
2022-12-18T15:56:39.764Z,18.63
2022-12-18T16:02:17.905Z,18.67
2022-12-18T16:04:47.412Z,20.40
2022-12-18T16:07:18.859Z,20.40
2022-12-18T16:09:51.628Z,20.80
2022-12-18T16:12:23.269Z,19.30
2022-12-18T16:14:53.277Z,20.83
2022-12-18T16:17:22.445Z,19.50
2022-12-18T16:19:51.287Z,29.50
2022-12-18T16:22:23.272Z,20.70
2022-12-18T16:24:52.910Z,20.40
2022-12-18T16:27:22.409Z,19.07
2022-12-18T16:29:52.726Z,20.33
2022-12-18T16:32:23.346Z,20.53
2022-12-18T16:34:52.307Z,19.00
2022-12-18T16:37:20.910Z,17.53
2022-12-18T16:39:49.630Z,19.00
2022-12-18T16:42:20.178Z,19.70
2022-12-18T16:44:51.278Z,17.97
2022-12-18T16:47:21.192Z,16.80
2022-12-18T16:49:53.202Z,17.30
2022-12-18T16:52:22.315Z,16.13
2022-12-18T16:54:50.935Z,16.47
2022-12-18T16:57:21.529Z,15.77
2022-12-18T16:59:54.163Z,16.83
2022-12-18T17:02:25.666Z,15.27
2022-12-18T17:04:56.780Z,17.63
2022-12-18T17:07:26.194Z,16.00
2022-12-18T17:09:55.195Z,15.77
2022-12-18T17:12:24.289Z,20.20
2022-12-18T17:14:52.894Z,17.20
2022-12-18T17:17:23.084Z,15.47
2022-12-18T17:19:53.877Z,15.60
2022-12-18T17:22:24.093Z,16.90
2022-12-18T17:24:52.722Z,18.47
2022-12-18T17:27:21.337Z,16.57
2022-12-18T17:29:49.991Z,16.10
2022-12-18T17:32:25.686Z,17.07
2022-12-18T17:34:55.679Z,18.77
2022-12-18T17:37:29.979Z,16.53
2022-12-18T17:39:58.693Z,15.53
2022-12-18T17:42:27.438Z,17.00
2022-12-18T17:45:00.152Z,16.43
2022-12-18T17:47:30.039Z,17.80
2022-12-18T17:50:00.116Z,16.20
2022-12-18T17:52:28.969Z,15.00
2022-12-18T17:54:57.676Z,16.10
2022-12-18T17:57:26.328Z,16.70
2022-12-18T17:59:55.005Z,15.33
2022-12-18T18:02:24.308Z,15.87
2022-12-18T18:04:53.465Z,16.40
2022-12-18T18:07:31.629Z,15.57
2022-12-18T18:10:00.360Z,13.90
2022-12-18T18:12:51.038Z,15.87
2022-12-18T18:15:19.784Z,16.40
2022-12-18T18:17:48.383Z,17.37
2022-12-18T18:20:22.257Z,17.50
2022-12-18T18:22:52.906Z,16.60
2022-12-18T18:25:21.648Z,15.70
2022-12-18T18:27:50.744Z,17.87
2022-12-18T18:30:19.717Z,15.80
2022-12-18T18:32:48.775Z,17.07
2022-12-18T18:35:45.063Z,16.67
2022-12-18T18:38:08.457Z,16.63
2022-12-18T18:40:37.194Z,15.83
2022-12-18T18:43:05.844Z,16.20
2022-12-18T18:45:35.353Z,17.47
2022-12-18T18:48:04.015Z,15.40
2022-12-18T18:50:32.621Z,16.07
2022-12-18T18:53:01.207Z,15.87
2022-12-18T18:55:34.157Z,15.83
2022-12-18T18:58:02.769Z,17.87
2022-12-18T19:01:05.860Z,16.10
2022-12-18T19:03:34.684Z,15.97
2022-12-18T19:06:03.283Z,16.67
2022-12-18T19:08:34.232Z,17.73
2022-12-18T19:11:06.034Z,16.65
2022-12-18T19:13:34.104Z,17.37
2022-12-18T19:16:05.467Z,18.17
2022-12-18T19:18:34.532Z,16.87
2022-12-18T19:21:05.180Z,17.70
2022-12-18T19:23:34.641Z,16.90
2022-12-18T19:28:55.371Z,17.90
2022-12-18T19:31:27.047Z,17.70
2022-12-18T19:33:58.265Z,17.80
2022-12-18T19:36:28.160Z,17.20
2022-12-18T19:38:58.454Z,16.93
2022-12-18T19:41:31.125Z,16.30
2022-12-18T19:44:01.609Z,18.37
2022-12-18T19:46:38.296Z,17.60
2022-12-18T19:49:11.168Z,18.80
2022-12-18T19:51:40.968Z,18.47
2022-12-18T19:54:13.351Z,19.20
2022-12-18T19:56:46.717Z,19.10
2022-12-18T19:59:16.918Z,18.90
2022-12-18T20:01:45.665Z,17.97
2022-12-18T20:04:14.383Z,16.47
2022-12-18T20:06:53.405Z,19.70
2022-12-18T20:09:29.195Z,19.53
2022-12-18T20:11:59.850Z,21.20
2022-12-18T20:14:28.601Z,19.37
2022-12-18T20:16:57.728Z,18.77
2022-12-18T20:19:29.636Z,19.07
2022-12-18T20:21:58.893Z,17.83
2022-12-18T20:24:27.880Z,18.20
2022-12-18T20:26:56.555Z,18.53
2022-12-18T20:29:26.713Z,18.10
2022-12-18T20:31:55.287Z,17.70
2022-12-18T20:34:28.123Z,19.90
2022-12-18T20:36:57.079Z,19.90
2022-12-18T20:39:27.482Z,19.60
2022-12-18T20:41:57.117Z,20.10
2022-12-18T20:44:27.184Z,21.20
2022-12-18T20:46:57.360Z,20.80
2022-12-18T20:49:27.600Z,20.60
2022-12-18T20:51:58.262Z,20.10
2022-12-18T20:54:28.051Z,20.30
2022-12-18T20:56:57.262Z,20.73
2022-12-18T20:59:27.367Z,21.87
2022-12-18T21:01:56.309Z,20.10
2022-12-18T21:04:25.386Z,18.77
2022-12-18T21:06:55.716Z,19.57
2022-12-18T21:09:37.184Z,17.53
2022-12-18T21:12:27.504Z,17.93
2022-12-18T21:14:59.417Z,20.70
2022-12-18T21:17:28.600Z,18.07
2022-12-18T21:19:58.426Z,20.10
2022-12-18T21:22:27.411Z,19.00
2022-12-18T21:24:55.999Z,18.00
2022-12-18T21:27:24.660Z,18.20
2022-12-18T21:29:53.447Z,18.03
2022-12-18T21:32:24.664Z,18.23
2022-12-18T21:34:55.736Z,18.83
2022-12-18T21:37:24.356Z,18.80
2022-12-18T21:39:53.024Z,18.30
2022-12-18T21:42:39.466Z,17.40
2022-12-18T21:45:09.024Z,16.40
2022-12-18T21:47:39.026Z,17.03
2022-12-18T21:50:08.107Z,16.70
2022-12-18T21:52:36.754Z,19.23
2022-12-18T21:55:09.331Z,18.17
2022-12-18T21:57:38.888Z,18.23
2022-12-18T22:00:12.499Z,18.57
2022-12-18T22:03:17.992Z,16.33
2022-12-18T22:05:38.629Z,18.47
2022-12-18T22:08:15.547Z,18.60
2022-12-18T22:10:46.345Z,19.30
2022-12-18T22:13:19.445Z,19.73
2022-12-18T22:15:48.139Z,17.13
2022-12-18T22:18:18.073Z,18.20
2022-12-18T22:20:46.710Z,17.40
2022-12-18T22:23:15.352Z,18.97
2022-12-18T22:25:51.796Z,17.37
2022-12-18T22:28:38.053Z,18.40
2022-12-18T22:31:06.810Z,18.53
2022-12-18T22:33:36.772Z,18.90
2022-12-18T22:36:06.638Z,18.27
2022-12-18T22:38:35.311Z,18.13
2022-12-18T22:41:03.931Z,17.80
2022-12-18T22:43:33.394Z,18.93
2022-12-18T22:46:04.618Z,19.33
2022-12-18T22:48:33.276Z,18.67
2022-12-18T22:51:03.480Z,19.57
2022-12-18T22:53:32.155Z,19.13
2022-12-18T22:56:03.923Z,18.60
2022-12-18T22:58:32.517Z,18.23
2022-12-18T23:01:01.133Z,20.20
2022-12-18T23:03:29.893Z,18.60
2022-12-18T23:06:05.353Z,19.13
2022-12-18T23:08:34.019Z,19.50
2022-12-18T23:11:03.206Z,18.20
2022-12-18T23:13:31.844Z,20.03
2022-12-18T23:16:00.775Z,19.03
2022-12-18T23:18:29.443Z,18.80
2022-12-18T23:20:58.083Z,20.70
2022-12-18T23:23:29.657Z,22.13
2022-12-18T23:26:02.342Z,20.00
2022-12-18T23:28:32.702Z,20.83
2022-12-18T23:31:06.704Z,20.67
2022-12-18T23:33:35.394Z,21.47
2022-12-18T23:36:05.158Z,20.90
2022-12-18T23:38:36.008Z,20.33
2022-12-18T23:41:08.045Z,18.93
2022-12-18T23:43:36.794Z,18.93
2022-12-18T23:46:11.296Z,18.70
2022-12-18T23:48:40.396Z,20.50
2022-12-18T23:51:10.151Z,19.00
2022-12-18T23:53:40.185Z,20.20
2022-12-18T23:56:10.162Z,19.33
2022-12-18T23:58:39.519Z,19.70
